createdAt,value
2019-02-28T00:01:32.081Z,85.80
2019-02-28T00:04:04.972Z,86.00
2019-02-28T00:06:37.926Z,86.30
2019-02-28T00:09:10.962Z,86.00
2019-02-28T00:11:44.049Z,86.60
2019-02-28T00:14:16.927Z,86.90
2019-02-28T00:16:49.843Z,87.10
2019-02-28T00:19:23.989Z,87.30
2019-02-28T00:21:57.414Z,87.00
2019-02-28T00:24:30.770Z,87.00
2019-02-28T00:27:04.069Z,86.90
2019-02-28T00:29:36.842Z,87.30
2019-02-28T00:32:09.679Z,87.70
2019-02-28T00:34:45.749Z,88.20
2019-02-28T00:37:18.815Z,89.00
2019-02-28T00:39:51.884Z,88.10
2019-02-28T00:42:24.680Z,88.00
2019-02-28T00:44:57.740Z,88.10
2019-02-28T00:47:30.702Z,88.40
2019-02-28T00:50:04.012Z,88.90
2019-02-28T00:52:36.954Z,89.00
2019-02-28T00:55:10.358Z,89.20
2019-02-28T00:57:43.297Z,89.60
2019-02-28T01:00:16.433Z,90.00
2019-02-28T01:02:53.446Z,90.00
2019-02-28T01:05:24.109Z,90.00
2019-02-28T01:07:57.374Z,90.10
2019-02-28T01:10:30.669Z,90.20
2019-02-28T01:13:03.573Z,90.30
2019-02-28T01:15:36.593Z,90.40
2019-02-28T01:18:09.429Z,90.40
2019-02-28T01:20:42.408Z,90.40
2019-02-28T01:23:15.387Z,90.40
2019-02-28T01:25:48.243Z,90.30
2019-02-28T01:28:23.366Z,90.50
2019-02-28T01:30:58.180Z,90.60
2019-02-28T01:33:30.929Z,90.40
2019-02-28T01:36:04.078Z,90.60
2019-02-28T01:38:36.797Z,90.70
2019-02-28T01:41:11.180Z,90.80
2019-02-28T01:43:44.213Z,90.90
2019-02-28T01:46:17.870Z,90.70
2019-02-28T01:48:50.743Z,91.00
2019-02-28T01:51:23.689Z,90.90
2019-02-28T01:53:56.496Z,90.90
2019-02-28T01:56:29.290Z,91.30
2019-02-28T01:59:02.139Z,91.40
2019-02-28T02:01:34.958Z,91.50
2019-02-28T02:04:07.943Z,91.20
2019-02-28T02:06:40.823Z,91.40
2019-02-28T02:09:13.799Z,91.60
2019-02-28T02:11:46.789Z,91.50
2019-02-28T02:14:19.655Z,91.80
2019-02-28T02:16:53.718Z,91.80
2019-02-28T02:19:26.554Z,92.10
2019-02-28T02:21:59.489Z,92.30
2019-02-28T02:24:32.287Z,92.40
2019-02-28T02:27:05.080Z,92.10
2019-02-28T02:29:38.175Z,92.20
2019-02-28T02:32:10.962Z,92.30
2019-02-28T02:34:45.204Z,92.50
2019-02-28T02:37:18.104Z,92.40
2019-02-28T02:39:51.347Z,92.50
2019-02-28T02:42:24.279Z,92.60
2019-02-28T02:44:57.360Z,92.70
2019-02-28T02:47:32.353Z,92.80
2019-02-28T02:50:05.979Z,92.70
2019-02-28T02:52:38.775Z,93.20
2019-02-28T02:55:12.350Z,93.30
2019-02-28T02:57:50.549Z,93.40
2019-02-28T03:00:20.300Z,93.40
2019-02-28T03:02:53.079Z,93.40
2019-02-28T03:05:25.924Z,93.60
2019-02-28T03:07:59.837Z,93.50
2019-02-28T03:10:33.825Z,93.30
2019-02-28T03:13:06.844Z,93.50
2019-02-28T03:15:39.800Z,93.60
2019-02-28T03:18:12.839Z,93.80
2019-02-28T03:20:45.779Z,94.10
2019-02-28T03:23:18.775Z,93.90
2019-02-28T03:25:51.826Z,93.70
2019-02-28T03:28:28.158Z,94.20
2019-02-28T03:31:11.804Z,93.80
2019-02-28T03:33:34.591Z,94.00
2019-02-28T03:36:07.745Z,94.10
2019-02-28T03:38:48.289Z,94.10
2019-02-28T03:41:17.834Z,94.10
2019-02-28T03:43:50.203Z,94.00
2019-02-28T03:46:23.061Z,94.50
2019-02-28T03:48:55.814Z,94.40
2019-02-28T03:51:29.584Z,94.40
2019-02-28T03:54:02.864Z,94.40
2019-02-28T03:56:35.713Z,94.50
2019-02-28T03:59:08.680Z,94.80
2019-02-28T04:01:45.695Z,95.00
2019-02-28T04:04:16.605Z,95.20
2019-02-28T04:06:49.523Z,95.50
2019-02-28T04:09:22.459Z,95.40
2019-02-28T04:11:55.470Z,95.10
2019-02-28T04:14:32.775Z,95.10
2019-02-28T04:17:03.132Z,95.30
2019-02-28T04:19:36.506Z,95.40
2019-02-28T04:22:09.670Z,95.40
2019-02-28T04:24:46.312Z,95.10
2019-02-28T04:27:17.470Z,95.10
2019-02-28T04:29:50.362Z,95.80
2019-02-28T04:32:27.698Z,96.20
2019-02-28T04:34:57.976Z,96.20
2019-02-28T04:37:30.771Z,96.40
2019-02-28T04:40:06.321Z,96.40
2019-02-28T04:42:39.126Z,96.30
2019-02-28T04:45:12.387Z,96.40
2019-02-28T04:47:45.200Z,96.40
2019-02-28T04:50:18.146Z,96.10
2019-02-28T04:52:51.331Z,95.80
2019-02-28T04:55:24.158Z,95.70
2019-02-28T04:57:57.107Z,95.70
2019-02-28T05:00:29.945Z,95.70
2019-02-28T05:03:03.262Z,96.10
2019-02-28T05:05:36.275Z,96.00
2019-02-28T05:08:09.466Z,96.40
2019-02-28T05:10:42.417Z,96.60
2019-02-28T05:13:15.406Z,96.60
2019-02-28T05:15:48.542Z,96.70
2019-02-28T05:18:21.624Z,97.00
2019-02-28T05:20:54.673Z,96.70
2019-02-28T05:23:27.413Z,96.50
2019-02-28T05:26:00.323Z,96.40
2019-02-28T05:28:33.363Z,96.50
2019-02-28T05:31:06.208Z,96.70
2019-02-28T05:33:42.068Z,97.20
2019-02-28T05:36:13.921Z,97.40
2019-02-28T05:38:46.879Z,97.50
2019-02-28T05:41:19.610Z,97.50
2019-02-28T05:43:52.786Z,97.40
2019-02-28T05:46:25.801Z,97.50
2019-02-28T05:48:58.922Z,97.50
2019-02-28T05:51:31.893Z,97.20
2019-02-28T05:54:04.712Z,97.50
2019-02-28T05:56:37.780Z,97.40
2019-02-28T05:59:10.792Z,97.00
2019-02-28T06:01:47.028Z,96.70
2019-02-28T06:04:18.862Z,96.60
2019-02-28T06:06:54.660Z,96.90
2019-02-28T06:09:26.989Z,97.30
2019-02-28T06:12:00.122Z,97.50
2019-02-28T06:14:32.886Z,98.00
2019-02-28T06:17:05.815Z,98.00
2019-02-28T06:19:40.194Z,98.10
2019-02-28T06:22:14.424Z,98.20
2019-02-28T06:24:47.211Z,98.00
2019-02-28T06:27:20.193Z,98.10
2019-02-28T06:29:52.959Z,98.20
2019-02-28T06:32:27.344Z,98.20
2019-02-28T06:35:00.333Z,98.10
2019-02-28T06:37:35.400Z,98.20
2019-02-28T06:40:10.123Z,97.40
2019-02-28T06:42:43.578Z,97.10
2019-02-28T06:45:17.982Z,96.90
2019-02-28T06:47:51.123Z,96.90
2019-02-28T06:50:24.237Z,97.10
2019-02-28T06:52:59.342Z,97.10
2019-02-28T06:55:32.186Z,97.40
2019-02-28T06:58:05.162Z,97.20
2019-02-28T07:00:38.154Z,96.90
2019-02-28T07:03:11.157Z,96.80
2019-02-28T07:05:44.193Z,96.70
2019-02-28T07:08:17.201Z,96.40
2019-02-28T07:10:50.320Z,96.40
2019-02-28T07:13:23.411Z,96.40
2019-02-28T07:15:59.038Z,96.40
2019-02-28T07:18:31.462Z,96.20
2019-02-28T07:21:07.754Z,96.30
2019-02-28T07:23:39.419Z,96.30
2019-02-28T07:26:12.314Z,96.10
2019-02-28T07:28:45.343Z,96.10
2019-02-28T07:31:18.127Z,95.90
2019-02-28T07:33:52.338Z,95.60
2019-02-28T07:36:25.787Z,95.50
2019-02-28T07:39:01.242Z,95.40
2019-02-28T07:41:34.673Z,95.00
2019-02-28T07:44:07.566Z,94.60
2019-02-28T07:46:42.429Z,94.30
2019-02-28T07:49:15.568Z,93.80
2019-02-28T07:51:48.349Z,93.30
2019-02-28T07:54:21.378Z,92.80
2019-02-28T07:56:54.248Z,92.50
2019-02-28T07:59:27.455Z,92.30
2019-02-28T08:02:03.227Z,92.20
2019-02-28T08:04:35.184Z,92.10
2019-02-28T08:07:11.368Z,91.90
2019-02-28T08:09:43.429Z,91.70
2019-02-28T08:12:16.318Z,91.50
2019-02-28T08:14:49.299Z,91.30
2019-02-28T08:17:22.066Z,91.20
2019-02-28T08:19:55.120Z,90.90
2019-02-28T08:22:28.308Z,90.70
2019-02-28T08:25:01.133Z,90.70
2019-02-28T08:27:34.350Z,90.00
2019-02-28T08:30:10.885Z,89.70
2019-02-28T08:32:46.866Z,89.20
2019-02-28T08:35:18.795Z,88.10
2019-02-28T08:37:55.821Z,87.70
2019-02-28T08:40:27.113Z,87.50
2019-02-28T08:43:00.120Z,86.50
2019-02-28T08:45:33.584Z,86.20
2019-02-28T08:48:07.570Z,85.20
2019-02-28T08:50:40.307Z,84.30
2019-02-28T08:53:15.390Z,83.90
2019-02-28T08:55:49.079Z,83.30
2019-02-28T08:58:22.325Z,82.00
2019-02-28T09:00:55.166Z,81.00
2019-02-28T09:03:28.153Z,80.60
2019-02-28T09:06:03.818Z,79.60
2019-02-28T09:08:41.501Z,79.10
2019-02-28T09:11:14.316Z,78.10
2019-02-28T09:13:47.216Z,76.70
2019-02-28T09:16:20.170Z,74.10
2019-02-28T09:18:53.265Z,74.40
2019-02-28T09:21:26.466Z,74.90
2019-02-28T09:23:59.416Z,74.90
2019-02-28T09:26:32.295Z,75.60
2019-02-28T09:29:06.337Z,75.80
2019-02-28T09:31:39.820Z,76.50
2019-02-28T09:34:13.093Z,76.20
2019-02-28T09:36:46.106Z,75.70
2019-02-28T09:39:19.566Z,75.30
2019-02-28T09:41:53.297Z,74.10
2019-02-28T09:44:26.465Z,72.80
2019-02-28T09:46:59.867Z,71.40
2019-02-28T09:49:33.012Z,70.50
2019-02-28T09:52:06.287Z,69.80
2019-02-28T09:54:42.049Z,68.20
2019-02-28T09:57:15.462Z,67.10
2019-02-28T09:59:50.067Z,68.10
2019-02-28T10:02:23.082Z,68.30
2019-02-28T10:04:56.872Z,68.50
2019-02-28T10:07:30.576Z,68.00
2019-02-28T10:10:04.298Z,68.20
2019-02-28T10:12:39.456Z,66.80
2019-02-28T10:15:16.521Z,67.30
2019-02-28T10:17:49.666Z,67.70
2019-02-28T10:20:27.006Z,66.80
2019-02-28T10:22:59.101Z,67.80
2019-02-28T10:25:32.503Z,67.80
2019-02-28T10:28:05.724Z,67.30
2019-02-28T10:30:38.791Z,66.30
2019-02-28T10:33:14.355Z,66.80
2019-02-28T10:35:46.738Z,66.00
2019-02-28T10:38:19.662Z,66.40
2019-02-28T10:40:53.313Z,67.40
2019-02-28T10:43:26.417Z,67.40
2019-02-28T10:45:59.212Z,67.70
2019-02-28T10:48:35.276Z,67.60
2019-02-28T10:51:13.951Z,67.30
2019-02-28T10:53:42.181Z,66.70
2019-02-28T10:56:15.222Z,67.30
2019-02-28T10:58:49.972Z,67.30
2019-02-28T11:01:23.782Z,67.30
2019-02-28T11:03:56.822Z,67.30
2019-02-28T11:06:31.593Z,68.90
2019-02-28T11:09:05.720Z,66.90
2019-02-28T11:11:42.540Z,67.40
2019-02-28T11:14:16.456Z,67.90
2019-02-28T11:16:49.893Z,68.10
2019-02-28T11:19:22.863Z,68.20
2019-02-28T11:21:55.737Z,68.70
2019-02-28T11:24:28.883Z,68.40
2019-02-28T11:27:03.023Z,67.30
2019-02-28T11:29:36.388Z,66.40
2019-02-28T11:32:09.626Z,64.70
2019-02-28T11:34:42.847Z,64.20
2019-02-28T11:37:17.618Z,61.40
2019-02-28T11:39:51.933Z,60.70
2019-02-28T11:42:28.062Z,58.50
2019-02-28T11:45:01.044Z,58.40
2019-02-28T11:47:33.998Z,57.90
2019-02-28T11:50:07.782Z,56.90
2019-02-28T11:52:41.042Z,57.60
2019-02-28T11:55:16.778Z,58.50
2019-02-28T11:57:48.927Z,57.50
2019-02-28T12:00:25.763Z,56.30
2019-02-28T12:03:00.726Z,54.70
2019-02-28T12:05:33.814Z,54.70
2019-02-28T12:08:10.372Z,55.00
2019-02-28T12:10:41.382Z,54.60
2019-02-28T12:13:16.565Z,56.00
2019-02-28T12:15:49.776Z,54.60
2019-02-28T12:18:22.910Z,54.30
2019-02-28T12:20:58.628Z,53.70
2019-02-28T12:23:30.832Z,53.80
2019-02-28T12:26:03.884Z,53.80
2019-02-28T12:28:38.254Z,54.70
2019-02-28T12:31:12.595Z,54.80
2019-02-28T12:33:45.379Z,57.00
2019-02-28T12:36:18.342Z,57.70
2019-02-28T12:38:51.259Z,58.70
2019-02-28T12:41:25.234Z,58.90
2019-02-28T12:43:59.061Z,58.30
2019-02-28T12:46:32.683Z,59.10
2019-02-28T12:49:05.813Z,61.00
2019-02-28T12:51:39.642Z,61.70
2019-02-28T12:54:13.327Z,62.00
2019-02-28T12:56:47.818Z,63.60
2019-02-28T12:59:21.324Z,65.00
2019-02-28T13:01:54.434Z,65.70
2019-02-28T13:04:27.598Z,67.20
2019-02-28T13:07:00.509Z,67.70
2019-02-28T13:09:33.433Z,68.10
2019-02-28T13:12:08.055Z,69.20
2019-02-28T13:14:41.841Z,70.40
2019-02-28T13:17:16.121Z,72.00
2019-02-28T13:19:49.204Z,73.80
2019-02-28T13:22:23.386Z,75.40
2019-02-28T13:24:57.173Z,76.90
2019-02-28T13:27:32.059Z,78.90
2019-02-28T13:30:10.449Z,79.00
2019-02-28T13:32:42.763Z,81.40
2019-02-28T13:35:18.019Z,82.50
2019-02-28T13:37:51.093Z,84.40
2019-02-28T13:40:24.326Z,85.50
2019-02-28T13:42:57.486Z,87.40
2019-02-28T13:45:30.823Z,88.70
2019-02-28T13:48:04.011Z,89.40
2019-02-28T13:50:37.038Z,90.20
2019-02-28T13:53:18.726Z,90.30
2019-02-28T13:55:45.704Z,90.90
2019-02-28T13:58:21.591Z,91.50
2019-02-28T14:00:53.322Z,91.70
2019-02-28T14:03:27.295Z,91.90
2019-02-28T14:06:00.203Z,91.80
2019-02-28T14:08:33.367Z,91.70
2019-02-28T14:11:10.286Z,91.60
2019-02-28T14:13:41.290Z,91.90
2019-02-28T14:16:14.429Z,91.90
2019-02-28T14:18:47.549Z,91.70
2019-02-28T14:21:20.384Z,91.60
2019-02-28T14:23:55.692Z,91.80
2019-02-28T14:26:28.783Z,91.50
2019-02-28T14:29:01.900Z,91.50
2019-02-28T14:31:34.965Z,91.10
2019-02-28T14:34:08.794Z,91.40
2019-02-28T14:36:41.798Z,91.30
2019-02-28T14:39:16.654Z,91.40
2019-02-28T14:41:49.495Z,91.40
2019-02-28T14:44:22.640Z,91.40
2019-02-28T14:46:55.615Z,91.30
2019-02-28T14:49:28.576Z,91.10
2019-02-28T14:52:03.547Z,91.00
2019-02-28T14:54:36.472Z,91.10
2019-02-28T14:57:09.257Z,90.90
2019-02-28T14:59:42.611Z,91.00
2019-02-28T15:02:15.521Z,90.80
2019-02-28T15:04:48.459Z,90.70
2019-02-28T15:07:21.530Z,90.80
2019-02-28T15:09:54.321Z,90.70
2019-02-28T15:12:27.158Z,90.50
2019-02-28T15:14:59.994Z,90.30
2019-02-28T15:17:32.975Z,90.30
2019-02-28T15:20:06.706Z,90.10
2019-02-28T15:22:40.277Z,89.80
2019-02-28T15:25:15.250Z,89.50
2019-02-28T15:27:50.861Z,89.40
2019-02-28T15:30:26.267Z,89.40
2019-02-28T15:32:59.196Z,87.10
2019-02-28T15:35:32.295Z,86.60
2019-02-28T15:38:08.753Z,86.50
2019-02-28T15:40:40.613Z,86.80
2019-02-28T15:43:17.005Z,86.70
2019-02-28T15:45:48.861Z,87.40
2019-02-28T15:48:22.035Z,86.50
2019-02-28T15:50:54.953Z,86.50
2019-02-28T15:53:27.940Z,86.70
2019-02-28T15:56:00.775Z,86.40
2019-02-28T15:58:34.304Z,86.60
2019-02-28T16:01:07.412Z,86.60
2019-02-28T16:03:40.400Z,86.80
2019-02-28T16:06:16.409Z,87.00
2019-02-28T16:08:48.297Z,86.60
2019-02-28T16:11:21.672Z,86.80
2019-02-28T16:13:57.489Z,86.80
2019-02-28T16:16:29.321Z,87.10
2019-02-28T16:19:02.586Z,87.20
2019-02-28T16:21:38.152Z,87.40
2019-02-28T16:24:10.203Z,87.10
2019-02-28T16:26:43.022Z,87.10
2019-02-28T16:29:20.384Z,87.30
2019-02-28T16:31:50.979Z,87.50
2019-02-28T16:34:24.232Z,88.00
2019-02-28T16:36:57.460Z,88.30
2019-02-28T16:39:32.394Z,88.20
2019-02-28T16:42:08.227Z,88.20
2019-02-28T16:44:40.516Z,87.90
2019-02-28T16:47:13.448Z,87.90
2019-02-28T16:49:46.349Z,87.90
2019-02-28T16:52:19.561Z,87.80
2019-02-28T16:54:53.366Z,87.50
2019-02-28T16:57:27.543Z,87.50
2019-02-28T17:00:04.134Z,87.30
2019-02-28T17:02:36.894Z,87.60
2019-02-28T17:05:10.919Z,87.80
2019-02-28T17:07:44.568Z,88.20
2019-02-28T17:10:19.063Z,88.50
2019-02-28T17:13:13.203Z,88.60
2019-02-28T17:15:55.783Z,88.80
2019-02-28T17:18:29.974Z,89.10
2019-02-28T17:21:03.288Z,89.10
2019-02-28T17:23:37.068Z,90.00
2019-02-28T17:26:10.796Z,89.50
2019-02-28T17:29:07.354Z,89.60
2019-02-28T17:31:44.462Z,89.70
2019-02-28T17:34:23.771Z,90.40
2019-02-28T17:36:53.752Z,91.30
2019-02-28T17:39:26.728Z,92.20
2019-02-28T17:42:08.127Z,92.70
2019-02-28T17:45:02.043Z,92.70
2019-02-28T17:48:14.766Z,92.70
2019-02-28T17:51:22.309Z,92.80
2019-02-28T17:54:11.522Z,92.70
2019-02-28T17:57:06.442Z,92.30
2019-02-28T18:00:30.538Z,92.20
2019-02-28T18:03:54.023Z,92.10
2019-02-28T18:06:53.246Z,91.90
2019-02-28T18:10:06.823Z,91.80
2019-02-28T18:13:32.878Z,91.70
2019-02-28T18:16:39.346Z,91.80
2019-02-28T18:20:07.330Z,91.50
2019-02-28T18:23:27.906Z,91.20
2019-02-28T18:26:41.791Z,91.10
2019-02-28T18:29:36.363Z,91.10
2019-02-28T18:32:09.333Z,91.10
2019-02-28T18:34:42.833Z,91.20
2019-02-28T18:37:15.813Z,90.80
2019-02-28T18:39:49.310Z,90.80
2019-02-28T18:42:22.637Z,90.90
2019-02-28T18:44:55.652Z,90.80
2019-02-28T18:47:28.709Z,90.80
2019-02-28T18:50:01.634Z,90.70
2019-02-28T18:52:34.502Z,90.70
2019-02-28T18:55:07.619Z,90.60
2019-02-28T18:57:40.783Z,90.70
2019-02-28T19:00:15.990Z,90.50
2019-02-28T19:02:49.423Z,90.50
2019-02-28T19:05:22.488Z,90.50
2019-02-28T19:07:55.715Z,90.50
2019-02-28T19:10:28.906Z,90.50
2019-02-28T19:13:01.930Z,90.20
2019-02-28T19:15:34.700Z,90.20
2019-02-28T19:18:07.720Z,90.20
2019-02-28T19:20:41.534Z,90.20
2019-02-28T19:23:14.364Z,90.40
2019-02-28T19:25:47.258Z,90.50
2019-02-28T19:28:20.369Z,90.40
2019-02-28T19:30:54.224Z,90.70
2019-02-28T19:33:28.140Z,90.70
2019-02-28T19:36:01.204Z,91.00
2019-02-28T19:38:37.395Z,91.80
2019-02-28T19:41:10.634Z,93.50
2019-02-28T19:43:43.717Z,94.50
2019-02-28T19:46:16.769Z,95.50
2019-02-28T19:48:49.751Z,96.20
2019-02-28T19:51:22.841Z,97.10
2019-02-28T19:53:55.891Z,96.90
2019-02-28T19:56:28.900Z,97.90
2019-02-28T19:59:02.842Z,97.90
2019-02-28T20:01:35.901Z,98.20
2019-02-28T20:04:08.984Z,98.40
2019-02-28T20:06:42.090Z,98.40
2019-02-28T20:09:14.985Z,98.70
2019-02-28T20:11:47.816Z,98.20
2019-02-28T20:14:20.680Z,98.70
2019-02-28T20:16:53.660Z,98.70
2019-02-28T20:19:26.904Z,98.50
2019-02-28T20:21:59.887Z,98.40
2019-02-28T20:24:32.799Z,98.70
2019-02-28T20:27:05.971Z,98.70
2019-02-28T20:29:38.999Z,98.40
2019-02-28T20:32:11.922Z,98.80
2019-02-28T20:34:44.985Z,98.60
2019-02-28T20:37:17.947Z,98.70
2019-02-28T20:39:51.112Z,98.50
2019-02-28T20:42:24.231Z,98.30
2019-02-28T20:44:58.206Z,98.30
2019-02-28T20:47:31.187Z,98.70
2019-02-28T20:50:08.298Z,98.40
2019-02-28T20:52:41.210Z,98.00
2019-02-28T20:55:14.184Z,98.10
2019-02-28T20:57:47.270Z,98.00
2019-02-28T21:00:23.731Z,98.00
2019-02-28T21:02:56.874Z,97.80
2019-02-28T21:05:29.864Z,97.90
2019-02-28T21:08:02.965Z,98.00
2019-02-28T21:10:36.257Z,98.60
2019-02-28T21:13:09.310Z,98.80
2019-02-28T21:15:42.461Z,98.60
2019-02-28T21:18:15.334Z,98.30
2019-02-28T21:20:48.260Z,98.50
2019-02-28T21:23:21.033Z,98.70
2019-02-28T21:25:54.191Z,98.90
2019-02-28T21:28:27.227Z,99.60
2019-02-28T21:31:00.344Z,99.90
2019-02-28T21:33:33.213Z,99.90
2019-02-28T21:36:06.195Z,99.90
2019-02-28T21:38:39.231Z,99.90
2019-02-28T21:41:12.609Z,99.90
2019-02-28T21:43:45.940Z,99.90
2019-02-28T21:46:19.997Z,99.90
2019-02-28T21:48:53.033Z,99.90
2019-02-28T21:51:26.387Z,99.90
2019-02-28T21:53:59.415Z,99.90
2019-02-28T21:56:32.539Z,99.90
2019-02-28T21:59:05.616Z,99.90
2019-02-28T22:01:38.491Z,99.90
2019-02-28T22:04:11.717Z,99.90
2019-02-28T22:06:44.841Z,99.90
2019-02-28T22:09:18.008Z,99.90
2019-02-28T22:11:51.114Z,99.90
2019-02-28T22:14:24.072Z,99.90
2019-02-28T22:16:57.018Z,99.90
2019-02-28T22:19:29.841Z,99.90
2019-02-28T22:22:02.710Z,99.90
2019-02-28T22:24:35.787Z,99.90
2019-02-28T22:27:08.825Z,99.90
2019-02-28T22:29:41.960Z,99.90
2019-02-28T22:32:29.687Z,99.90
2019-02-28T22:35:25.243Z,99.90
2019-02-28T22:37:58.387Z,99.90
2019-02-28T22:40:31.431Z,99.90
2019-02-28T22:43:04.436Z,99.90
2019-02-28T22:45:37.581Z,99.90
2019-02-28T22:48:10.860Z,99.90
2019-02-28T22:50:44.273Z,99.90
2019-02-28T22:53:17.526Z,99.90
2019-02-28T22:55:50.502Z,99.90
2019-02-28T22:58:23.894Z,99.90
2019-02-28T23:01:05.151Z,99.90
2019-02-28T23:03:39.444Z,99.90
2019-02-28T23:06:12.424Z,99.90
2019-02-28T23:08:45.543Z,99.90
2019-02-28T23:11:18.329Z,99.90
2019-02-28T23:13:51.748Z,99.90
2019-02-28T23:16:24.822Z,99.90
2019-02-28T23:18:58.121Z,99.90
2019-02-28T23:21:31.277Z,99.90
2019-02-28T23:24:04.324Z,99.90
2019-02-28T23:27:17.622Z,99.90
2019-02-28T23:30:02.943Z,99.90
2019-02-28T23:33:05.957Z,99.90
2019-02-28T23:35:41.026Z,99.90
2019-02-28T23:38:14.319Z,99.90
2019-02-28T23:40:47.406Z,99.60
2019-02-28T23:43:20.238Z,99.50
2019-02-28T23:45:53.018Z,99.00
2019-02-28T23:48:25.799Z,99.40
2019-02-28T23:50:58.668Z,99.80
2019-02-28T23:53:31.529Z,99.90
2019-02-28T23:56:04.369Z,99.90
2019-02-28T23:58:37.203Z,99.90
